sensor_id;sensor_type;location;lat;lon;timestamp;P1;durP1;ratioP1;P2;durP2;ratioP2
13269;SDS011;6703;51.994;7.570;2023-02-23T00:00:26;101.20;;;40.95;;
13269;SDS011;6703;51.994;7.570;2023-02-23T00:02:55;94.65;;;40.25;;
13269;SDS011;6703;51.994;7.570;2023-02-23T00:05:27;97.28;;;41.08;;
13269;SDS011;6703;51.994;7.570;2023-02-23T00:07:56;102.95;;;41.80;;
13269;SDS011;6703;51.994;7.570;2023-02-23T00:10:24;101.28;;;40.72;;
13269;SDS011;6703;51.994;7.570;2023-02-23T00:12:55;101.40;;;42.05;;
13269;SDS011;6703;51.994;7.570;2023-02-23T00:15:26;98.93;;;41.45;;
13269;SDS011;6703;51.994;7.570;2023-02-23T00:17:55;99.38;;;41.92;;
13269;SDS011;6703;51.994;7.570;2023-02-23T00:20:24;95.25;;;40.65;;
13269;SDS011;6703;51.994;7.570;2023-02-23T00:22:52;103.35;;;42.58;;
13269;SDS011;6703;51.994;7.570;2023-02-23T00:25:21;106.33;;;41.60;;
13269;SDS011;6703;51.994;7.570;2023-02-23T00:27:49;112.27;;;43.03;;
13269;SDS011;6703;51.994;7.570;2023-02-23T00:30:18;104.60;;;42.15;;
13269;SDS011;6703;51.994;7.570;2023-02-23T00:32:48;106.45;;;43.70;;
13269;SDS011;6703;51.994;7.570;2023-02-23T00:35:17;103.10;;;41.25;;
13269;SDS011;6703;51.994;7.570;2023-02-23T00:37:46;111.38;;;41.92;;
13269;SDS011;6703;51.994;7.570;2023-02-23T00:40:15;111.68;;;42.80;;
13269;SDS011;6703;51.994;7.570;2023-02-23T00:42:46;103.32;;;42.75;;
13269;SDS011;6703;51.994;7.570;2023-02-23T00:45:15;113.90;;;43.53;;
13269;SDS011;6703;51.994;7.570;2023-02-23T00:47:43;108.30;;;43.75;;
13269;SDS011;6703;51.994;7.570;2023-02-23T00:50:15;107.60;;;43.42;;
13269;SDS011;6703;51.994;7.570;2023-02-23T00:52:44;115.25;;;44.70;;
13269;SDS011;6703;51.994;7.570;2023-02-23T00:55:12;110.47;;;43.58;;
13269;SDS011;6703;51.994;7.570;2023-02-23T00:57:41;101.85;;;42.33;;
13269;SDS011;6703;51.994;7.570;2023-02-23T01:00:10;102.88;;;40.45;;
13269;SDS011;6703;51.994;7.570;2023-02-23T01:02:43;123.45;;;44.83;;
13269;SDS011;6703;51.994;7.570;2023-02-23T01:05:11;117.75;;;45.40;;
13269;SDS011;6703;51.994;7.570;2023-02-23T01:07:40;114.47;;;44.60;;
13269;SDS011;6703;51.994;7.570;2023-02-23T01:10:11;111.90;;;44.23;;
13269;SDS011;6703;51.994;7.570;2023-02-23T01:12:46;114.38;;;44.90;;
13269;SDS011;6703;51.994;7.570;2023-02-23T01:15:15;109.13;;;42.95;;
13269;SDS011;6703;51.994;7.570;2023-02-23T01:17:44;111.47;;;44.60;;
13269;SDS011;6703;51.994;7.570;2023-02-23T01:20:13;115.43;;;44.72;;
13269;SDS011;6703;51.994;7.570;2023-02-23T01:22:46;118.53;;;43.73;;
13269;SDS011;6703;51.994;7.570;2023-02-23T01:25:15;119.40;;;44.10;;
13269;SDS011;6703;51.994;7.570;2023-02-23T01:27:44;111.80;;;43.33;;
13269;SDS011;6703;51.994;7.570;2023-02-23T01:30:13;124.80;;;46.05;;
13269;SDS011;6703;51.994;7.570;2023-02-23T01:32:41;119.78;;;46.15;;
13269;SDS011;6703;51.994;7.570;2023-02-23T01:35:09;117.97;;;45.37;;
13269;SDS011;6703;51.994;7.570;2023-02-23T01:37:39;111.22;;;42.20;;
13269;SDS011;6703;51.994;7.570;2023-02-23T01:40:12;119.73;;;45.20;;
13269;SDS011;6703;51.994;7.570;2023-02-23T01:42:42;107.63;;;42.22;;
13269;SDS011;6703;51.994;7.570;2023-02-23T01:45:18;104.88;;;40.80;;
13269;SDS011;6703;51.994;7.570;2023-02-23T01:47:50;85.40;;;36.42;;
13269;SDS011;6703;51.994;7.570;2023-02-23T01:50:19;97.03;;;41.17;;
13269;SDS011;6703;51.994;7.570;2023-02-23T01:52:49;94.78;;;36.95;;
13269;SDS011;6703;51.994;7.570;2023-02-23T01:55:19;83.32;;;34.97;;
13269;SDS011;6703;51.994;7.570;2023-02-23T01:57:49;85.82;;;35.78;;
13269;SDS011;6703;51.994;7.570;2023-02-23T02:00:20;88.50;;;36.58;;
13269;SDS011;6703;51.994;7.570;2023-02-23T02:02:51;89.97;;;37.47;;
13269;SDS011;6703;51.994;7.570;2023-02-23T02:05:19;95.85;;;39.58;;
13269;SDS011;6703;51.994;7.570;2023-02-23T02:07:48;91.20;;;37.58;;
13269;SDS011;6703;51.994;7.570;2023-02-23T02:10:26;83.82;;;36.17;;
13269;SDS011;6703;51.994;7.570;2023-02-23T02:13:09;96.20;;;37.63;;
13269;SDS011;6703;51.994;7.570;2023-02-23T02:15:44;81.78;;;33.85;;
13269;SDS011;6703;51.994;7.570;2023-02-23T02:18:21;86.70;;;36.60;;
13269;SDS011;6703;51.994;7.570;2023-02-23T02:21:01;85.10;;;34.97;;
13269;SDS011;6703;51.994;7.570;2023-02-23T02:24:02;75.35;;;32.70;;
13269;SDS011;6703;51.994;7.570;2023-02-23T02:26:42;83.60;;;33.45;;
13269;SDS011;6703;51.994;7.570;2023-02-23T02:29:35;81.60;;;33.45;;
13269;SDS011;6703;51.994;7.570;2023-02-23T02:35:20;88.90;;;34.85;;
13269;SDS011;6703;51.994;7.570;2023-02-23T02:38:06;74.15;;;31.45;;
13269;SDS011;6703;51.994;7.570;2023-02-23T02:40:50;76.63;;;32.22;;
13269;SDS011;6703;51.994;7.570;2023-02-23T02:43:22;86.20;;;34.10;;
13269;SDS011;6703;51.994;7.570;2023-02-23T02:45:54;94.57;;;38.03;;
13269;SDS011;6703;51.994;7.570;2023-02-23T02:48:26;93.35;;;35.53;;
13269;SDS011;6703;51.994;7.570;2023-02-23T02:50:59;99.55;;;38.72;;
13269;SDS011;6703;51.994;7.570;2023-02-23T02:53:38;93.13;;;36.03;;
13269;SDS011;6703;51.994;7.570;2023-02-23T02:56:08;87.40;;;35.17;;
13269;SDS011;6703;51.994;7.570;2023-02-23T02:58:36;106.57;;;38.92;;
13269;SDS011;6703;51.994;7.570;2023-02-23T03:01:05;102.22;;;38.13;;
13269;SDS011;6703;51.994;7.570;2023-02-23T03:03:51;102.50;;;38.35;;
13269;SDS011;6703;51.994;7.570;2023-02-23T03:06:37;107.57;;;37.90;;
13269;SDS011;6703;51.994;7.570;2023-02-23T03:09:32;101.55;;;38.03;;
13269;SDS011;6703;51.994;7.570;2023-02-23T03:12:23;110.95;;;38.95;;
13269;SDS011;6703;51.994;7.570;2023-02-23T03:15:15;111.10;;;39.35;;
13269;SDS011;6703;51.994;7.570;2023-02-23T03:18:14;118.70;;;35.07;;
13269;SDS011;6703;51.994;7.570;2023-02-23T03:21:07;115.30;;;33.95;;
13269;SDS011;6703;51.994;7.570;2023-02-23T03:23:59;111.18;;;34.55;;
13269;SDS011;6703;51.994;7.570;2023-02-23T03:26:51;119.83;;;32.80;;
13269;SDS011;6703;51.994;7.570;2023-02-23T03:29:38;120.30;;;32.72;;
13269;SDS011;6703;51.994;7.570;2023-02-23T03:32:27;105.65;;;34.08;;
13269;SDS011;6703;51.994;7.570;2023-02-23T03:35:15;87.18;;;34.22;;
13269;SDS011;6703;51.994;7.570;2023-02-23T03:38:06;93.93;;;35.90;;
13269;SDS011;6703;51.994;7.570;2023-02-23T03:40:54;91.28;;;33.60;;
13269;SDS011;6703;51.994;7.570;2023-02-23T03:43:42;87.82;;;32.05;;
13269;SDS011;6703;51.994;7.570;2023-02-23T03:46:31;102.55;;;32.70;;
13269;SDS011;6703;51.994;7.570;2023-02-23T03:49:17;106.68;;;32.72;;
13269;SDS011;6703;51.994;7.570;2023-02-23T03:52:04;92.72;;;31.80;;
13269;SDS011;6703;51.994;7.570;2023-02-23T03:54:53;97.82;;;35.50;;
13269;SDS011;6703;51.994;7.570;2023-02-23T03:57:40;98.65;;;33.58;;
13269;SDS011;6703;51.994;7.570;2023-02-23T04:00:30;108.15;;;32.97;;
13269;SDS011;6703;51.994;7.570;2023-02-23T04:03:17;102.78;;;35.47;;
13269;SDS011;6703;51.994;7.570;2023-02-23T04:06:03;128.38;;;35.20;;
13269;SDS011;6703;51.994;7.570;2023-02-23T04:08:52;111.43;;;38.37;;
13269;SDS011;6703;51.994;7.570;2023-02-23T04:11:39;125.10;;;40.40;;
13269;SDS011;6703;51.994;7.570;2023-02-23T04:14:27;116.60;;;37.03;;
13269;SDS011;6703;51.994;7.570;2023-02-23T04:16:58;111.53;;;38.40;;
13269;SDS011;6703;51.994;7.570;2023-02-23T04:19:25;127.00;;;38.97;;
13269;SDS011;6703;51.994;7.570;2023-02-23T04:21:53;133.30;;;43.20;;
13269;SDS011;6703;51.994;7.570;2023-02-23T04:24:21;127.40;;;42.55;;
13269;SDS011;6703;51.994;7.570;2023-02-23T04:26:48;131.18;;;43.40;;
13269;SDS011;6703;51.994;7.570;2023-02-23T04:29:16;135.98;;;45.35;;
13269;SDS011;6703;51.994;7.570;2023-02-23T04:31:43;133.18;;;44.72;;
13269;SDS011;6703;51.994;7.570;2023-02-23T04:34:13;146.55;;;45.85;;
13269;SDS011;6703;51.994;7.570;2023-02-23T04:36:41;134.48;;;44.03;;
13269;SDS011;6703;51.994;7.570;2023-02-23T04:39:09;131.07;;;41.27;;
13269;SDS011;6703;51.994;7.570;2023-02-23T04:41:37;143.15;;;42.42;;
13269;SDS011;6703;51.994;7.570;2023-02-23T04:44:04;140.25;;;43.08;;
13269;SDS011;6703;51.994;7.570;2023-02-23T04:46:32;126.03;;;41.95;;
13269;SDS011;6703;51.994;7.570;2023-02-23T04:49:00;133.02;;;43.20;;
13269;SDS011;6703;51.994;7.570;2023-02-23T04:51:30;143.63;;;39.50;;
13269;SDS011;6703;51.994;7.570;2023-02-23T04:53:59;140.68;;;40.47;;
13269;SDS011;6703;51.994;7.570;2023-02-23T04:56:27;149.70;;;39.35;;
13269;SDS011;6703;51.994;7.570;2023-02-23T04:58:55;134.95;;;41.03;;
13269;SDS011;6703;51.994;7.570;2023-02-23T05:01:23;139.88;;;42.60;;
13269;SDS011;6703;51.994;7.570;2023-02-23T05:03:50;136.63;;;41.92;;
13269;SDS011;6703;51.994;7.570;2023-02-23T05:06:18;149.73;;;45.42;;
13269;SDS011;6703;51.994;7.570;2023-02-23T05:08:47;138.73;;;43.60;;
13269;SDS011;6703;51.994;7.570;2023-02-23T05:11:15;155.18;;;44.33;;
13269;SDS011;6703;51.994;7.570;2023-02-23T05:13:43;125.43;;;41.40;;
13269;SDS011;6703;51.994;7.570;2023-02-23T05:16:11;155.32;;;45.42;;
13269;SDS011;6703;51.994;7.570;2023-02-23T05:18:39;124.60;;;44.08;;
13269;SDS011;6703;51.994;7.570;2023-02-23T05:21:07;139.05;;;43.28;;
13269;SDS011;6703;51.994;7.570;2023-02-23T05:23:35;149.82;;;46.53;;
13269;SDS011;6703;51.994;7.570;2023-02-23T05:26:06;148.05;;;44.67;;
13269;SDS011;6703;51.994;7.570;2023-02-23T05:28:35;145.77;;;42.58;;
13269;SDS011;6703;51.994;7.570;2023-02-23T05:31:04;161.00;;;41.75;;
13269;SDS011;6703;51.994;7.570;2023-02-23T05:33:33;141.45;;;43.78;;
13269;SDS011;6703;51.994;7.570;2023-02-23T05:36:07;145.02;;;47.17;;
13269;SDS011;6703;51.994;7.570;2023-02-23T05:38:37;147.73;;;44.97;;
13269;SDS011;6703;51.994;7.570;2023-02-23T05:41:06;149.95;;;48.00;;
13269;SDS011;6703;51.994;7.570;2023-02-23T05:43:34;155.98;;;47.88;;
13269;SDS011;6703;51.994;7.570;2023-02-23T05:46:04;162.23;;;49.58;;
13269;SDS011;6703;51.994;7.570;2023-02-23T05:48:33;170.23;;;50.97;;
13269;SDS011;6703;51.994;7.570;2023-02-23T05:51:01;165.75;;;50.42;;
13269;SDS011;6703;51.994;7.570;2023-02-23T05:53:29;175.23;;;52.03;;
13269;SDS011;6703;51.994;7.570;2023-02-23T05:55:57;183.83;;;53.47;;
13269;SDS011;6703;51.994;7.570;2023-02-23T05:58:26;177.18;;;52.45;;
13269;SDS011;6703;51.994;7.570;2023-02-23T06:00:54;189.40;;;54.85;;
13269;SDS011;6703;51.994;7.570;2023-02-23T06:03:22;190.63;;;53.70;;
13269;SDS011;6703;51.994;7.570;2023-02-23T06:05:50;179.93;;;53.20;;
13269;SDS011;6703;51.994;7.570;2023-02-23T06:08:18;203.90;;;56.38;;
13269;SDS011;6703;51.994;7.570;2023-02-23T06:10:46;204.23;;;56.37;;
13269;SDS011;6703;51.994;7.570;2023-02-23T06:13:14;208.10;;;57.40;;
13269;SDS011;6703;51.994;7.570;2023-02-23T06:15:43;213.00;;;55.53;;
13269;SDS011;6703;51.994;7.570;2023-02-23T06:18:11;223.90;;;56.88;;
13269;SDS011;6703;51.994;7.570;2023-02-23T06:20:39;216.50;;;57.63;;
13269;SDS011;6703;51.994;7.570;2023-02-23T06:23:06;211.00;;;55.95;;
13269;SDS011;6703;51.994;7.570;2023-02-23T06:25:34;208.25;;;56.30;;
13269;SDS011;6703;51.994;7.570;2023-02-23T06:28:02;206.23;;;56.88;;
13269;SDS011;6703;51.994;7.570;2023-02-23T06:30:30;213.73;;;57.30;;
13269;SDS011;6703;51.994;7.570;2023-02-23T06:33:00;206.00;;;55.85;;
13269;SDS011;6703;51.994;7.570;2023-02-23T06:35:27;202.90;;;55.10;;
13269;SDS011;6703;51.994;7.570;2023-02-23T06:37:55;207.57;;;54.33;;
13269;SDS011;6703;51.994;7.570;2023-02-23T06:40:23;225.40;;;56.17;;
13269;SDS011;6703;51.994;7.570;2023-02-23T06:42:50;217.00;;;59.30;;
13269;SDS011;6703;51.994;7.570;2023-02-23T06:45:18;215.27;;;57.00;;
13269;SDS011;6703;51.994;7.570;2023-02-23T06:47:46;237.18;;;59.00;;
13269;SDS011;6703;51.994;7.570;2023-02-23T06:50:15;227.93;;;59.00;;
13269;SDS011;6703;51.994;7.570;2023-02-23T06:52:43;230.55;;;59.95;;
13269;SDS011;6703;51.994;7.570;2023-02-23T06:55:11;223.23;;;58.97;;
13269;SDS011;6703;51.994;7.570;2023-02-23T06:57:39;230.23;;;59.23;;
13269;SDS011;6703;51.994;7.570;2023-02-23T07:00:08;222.93;;;59.20;;
13269;SDS011;6703;51.994;7.570;2023-02-23T07:02:37;227.02;;;59.42;;
13269;SDS011;6703;51.994;7.570;2023-02-23T07:05:05;234.60;;;61.20;;
13269;SDS011;6703;51.994;7.570;2023-02-23T07:07:35;211.75;;;58.85;;
13269;SDS011;6703;51.994;7.570;2023-02-23T07:10:03;210.30;;;60.03;;
13269;SDS011;6703;51.994;7.570;2023-02-23T07:12:32;216.07;;;60.83;;
13269;SDS011;6703;51.994;7.570;2023-02-23T07:14:59;218.10;;;60.00;;
13269;SDS011;6703;51.994;7.570;2023-02-23T07:17:27;222.60;;;60.30;;
13269;SDS011;6703;51.994;7.570;2023-02-23T07:19:54;214.02;;;59.85;;
13269;SDS011;6703;51.994;7.570;2023-02-23T07:22:24;200.98;;;57.70;;
13269;SDS011;6703;51.994;7.570;2023-02-23T07:24:56;209.02;;;58.08;;
13269;SDS011;6703;51.994;7.570;2023-02-23T07:27:24;214.50;;;58.35;;
13269;SDS011;6703;51.994;7.570;2023-02-23T07:29:52;210.43;;;59.03;;
13269;SDS011;6703;51.994;7.570;2023-02-23T07:32:20;208.50;;;58.30;;
13269;SDS011;6703;51.994;7.570;2023-02-23T07:34:48;204.23;;;58.30;;
13269;SDS011;6703;51.994;7.570;2023-02-23T07:37:19;197.10;;;56.78;;
13269;SDS011;6703;51.994;7.570;2023-02-23T07:39:47;188.90;;;55.83;;
13269;SDS011;6703;51.994;7.570;2023-02-23T07:42:16;180.03;;;54.90;;
13269;SDS011;6703;51.994;7.570;2023-02-23T07:44:43;195.50;;;58.08;;
13269;SDS011;6703;51.994;7.570;2023-02-23T07:47:11;193.20;;;57.47;;
13269;SDS011;6703;51.994;7.570;2023-02-23T07:49:39;196.25;;;57.38;;
13269;SDS011;6703;51.994;7.570;2023-02-23T07:52:07;186.85;;;55.85;;
13269;SDS011;6703;51.994;7.570;2023-02-23T07:54:35;188.97;;;56.00;;
13269;SDS011;6703;51.994;7.570;2023-02-23T07:57:02;170.52;;;54.92;;
13269;SDS011;6703;51.994;7.570;2023-02-23T07:59:32;178.27;;;54.53;;
13269;SDS011;6703;51.994;7.570;2023-02-23T08:01:59;172.27;;;54.13;;
13269;SDS011;6703;51.994;7.570;2023-02-23T08:04:27;165.02;;;54.20;;
13269;SDS011;6703;51.994;7.570;2023-02-23T08:06:55;165.40;;;54.50;;
13269;SDS011;6703;51.994;7.570;2023-02-23T08:09:23;170.77;;;54.30;;
13269;SDS011;6703;51.994;7.570;2023-02-23T08:11:50;167.50;;;51.88;;
13269;SDS011;6703;51.994;7.570;2023-02-23T08:14:18;159.38;;;50.40;;
13269;SDS011;6703;51.994;7.570;2023-02-23T08:16:50;150.25;;;50.90;;
13269;SDS011;6703;51.994;7.570;2023-02-23T08:19:18;155.98;;;50.55;;
13269;SDS011;6703;51.994;7.570;2023-02-23T08:21:48;168.20;;;52.63;;
13269;SDS011;6703;51.994;7.570;2023-02-23T08:24:16;167.10;;;52.50;;
13269;SDS011;6703;51.994;7.570;2023-02-23T08:26:44;159.27;;;51.55;;
13269;SDS011;6703;51.994;7.570;2023-02-23T08:29:11;165.35;;;53.85;;
13269;SDS011;6703;51.994;7.570;2023-02-23T08:31:39;168.40;;;53.17;;
13269;SDS011;6703;51.994;7.570;2023-02-23T08:34:08;168.85;;;52.60;;
13269;SDS011;6703;51.994;7.570;2023-02-23T08:36:36;158.77;;;51.47;;
13269;SDS011;6703;51.994;7.570;2023-02-23T08:39:05;151.20;;;50.70;;
13269;SDS011;6703;51.994;7.570;2023-02-23T08:41:35;139.68;;;49.35;;
13269;SDS011;6703;51.994;7.570;2023-02-23T08:44:02;160.05;;;50.10;;
13269;SDS011;6703;51.994;7.570;2023-02-23T08:46:30;143.75;;;50.38;;
13269;SDS011;6703;51.994;7.570;2023-02-23T08:48:58;155.85;;;50.92;;
13269;SDS011;6703;51.994;7.570;2023-02-23T08:51:28;152.77;;;49.27;;
13269;SDS011;6703;51.994;7.570;2023-02-23T08:53:55;144.53;;;48.03;;
13269;SDS011;6703;51.994;7.570;2023-02-23T08:56:23;148.32;;;49.45;;
13269;SDS011;6703;51.994;7.570;2023-02-23T08:58:52;152.70;;;51.77;;
13269;SDS011;6703;51.994;7.570;2023-02-23T09:01:20;169.43;;;53.88;;
13269;SDS011;6703;51.994;7.570;2023-02-23T09:03:48;149.20;;;48.50;;
13269;SDS011;6703;51.994;7.570;2023-02-23T09:06:17;144.23;;;49.05;;
13269;SDS011;6703;51.994;7.570;2023-02-23T09:08:47;144.45;;;46.95;;
13269;SDS011;6703;51.994;7.570;2023-02-23T09:11:15;134.93;;;46.58;;
13269;SDS011;6703;51.994;7.570;2023-02-23T09:13:44;153.05;;;47.40;;
13269;SDS011;6703;51.994;7.570;2023-02-23T09:16:12;146.50;;;47.30;;
13269;SDS011;6703;51.994;7.570;2023-02-23T09:18:40;137.40;;;46.22;;
13269;SDS011;6703;51.994;7.570;2023-02-23T09:21:12;127.30;;;43.83;;
13269;SDS011;6703;51.994;7.570;2023-02-23T09:23:44;138.55;;;45.75;;
13269;SDS011;6703;51.994;7.570;2023-02-23T09:26:14;142.63;;;48.15;;
13269;SDS011;6703;51.994;7.570;2023-02-23T09:28:44;131.73;;;46.08;;
13269;SDS011;6703;51.994;7.570;2023-02-23T09:31:13;135.23;;;44.77;;
13269;SDS011;6703;51.994;7.570;2023-02-23T09:33:41;140.40;;;46.42;;
13269;SDS011;6703;51.994;7.570;2023-02-23T09:36:10;128.98;;;45.08;;
13269;SDS011;6703;51.994;7.570;2023-02-23T09:38:41;132.05;;;43.10;;
13269;SDS011;6703;51.994;7.570;2023-02-23T09:41:21;124.22;;;41.67;;
13269;SDS011;6703;51.994;7.570;2023-02-23T09:44:10;119.10;;;40.10;;
13269;SDS011;6703;51.994;7.570;2023-02-23T09:46:44;132.38;;;44.58;;
13269;SDS011;6703;51.994;7.570;2023-02-23T09:49:17;132.15;;;43.00;;
13269;SDS011;6703;51.994;7.570;2023-02-23T09:51:49;117.88;;;38.40;;
13269;SDS011;6703;51.994;7.570;2023-02-23T09:54:20;131.67;;;42.70;;
13269;SDS011;6703;51.994;7.570;2023-02-23T09:56:50;120.75;;;38.55;;
13269;SDS011;6703;51.994;7.570;2023-02-23T09:59:21;111.47;;;36.65;;
13269;SDS011;6703;51.994;7.570;2023-02-23T10:01:52;121.50;;;40.08;;
13269;SDS011;6703;51.994;7.570;2023-02-23T10:04:25;122.93;;;39.73;;
13269;SDS011;6703;51.994;7.570;2023-02-23T10:06:57;122.68;;;37.70;;
13269;SDS011;6703;51.994;7.570;2023-02-23T10:09:40;116.00;;;36.47;;
13269;SDS011;6703;51.994;7.570;2023-02-23T10:12:12;120.78;;;38.92;;
13269;SDS011;6703;51.994;7.570;2023-02-23T10:14:50;120.63;;;36.90;;
13269;SDS011;6703;51.994;7.570;2023-02-23T10:17:28;119.05;;;35.58;;
13269;SDS011;6703;51.994;7.570;2023-02-23T10:20:05;111.25;;;34.20;;
13269;SDS011;6703;51.994;7.570;2023-02-23T10:22:40;119.70;;;38.30;;
13269;SDS011;6703;51.994;7.570;2023-02-23T10:25:09;102.05;;;33.10;;
13269;SDS011;6703;51.994;7.570;2023-02-23T10:27:41;102.90;;;31.83;;
13269;SDS011;6703;51.994;7.570;2023-02-23T10:30:15;102.65;;;31.50;;
13269;SDS011;6703;51.994;7.570;2023-02-23T10:32:47;111.47;;;33.42;;
13269;SDS011;6703;51.994;7.570;2023-02-23T10:35:18;99.63;;;29.75;;
13269;SDS011;6703;51.994;7.570;2023-02-23T10:37:47;91.85;;;30.27;;
13269;SDS011;6703;51.994;7.570;2023-02-23T10:40:17;93.78;;;29.67;;
13269;SDS011;6703;51.994;7.570;2023-02-23T10:42:49;87.97;;;26.87;;
13269;SDS011;6703;51.994;7.570;2023-02-23T10:45:18;89.10;;;25.83;;
13269;SDS011;6703;51.994;7.570;2023-02-23T10:47:51;85.85;;;24.65;;
13269;SDS011;6703;51.994;7.570;2023-02-23T10:50:21;73.35;;;22.20;;
13269;SDS011;6703;51.994;7.570;2023-02-23T10:52:53;77.45;;;23.10;;
13269;SDS011;6703;51.994;7.570;2023-02-23T10:55:24;88.07;;;23.58;;
13269;SDS011;6703;51.994;7.570;2023-02-23T10:58:07;69.13;;;21.52;;
13269;SDS011;6703;51.994;7.570;2023-02-23T11:00:49;79.68;;;23.13;;
13269;SDS011;6703;51.994;7.570;2023-02-23T11:03:22;70.40;;;21.38;;
13269;SDS011;6703;51.994;7.570;2023-02-23T11:05:52;74.93;;;21.23;;
13269;SDS011;6703;51.994;7.570;2023-02-23T11:08:26;72.20;;;21.85;;
13269;SDS011;6703;51.994;7.570;2023-02-23T11:10:56;71.00;;;21.13;;
13269;SDS011;6703;51.994;7.570;2023-02-23T11:13:28;71.20;;;21.17;;
13269;SDS011;6703;51.994;7.570;2023-02-23T11:16:00;61.83;;;19.25;;
13269;SDS011;6703;51.994;7.570;2023-02-23T11:18:29;62.67;;;20.05;;
13269;SDS011;6703;51.994;7.570;2023-02-23T11:20:57;64.90;;;19.53;;
13269;SDS011;6703;51.994;7.570;2023-02-23T11:23:26;64.13;;;20.02;;
13269;SDS011;6703;51.994;7.570;2023-02-23T11:25:56;62.70;;;20.05;;
13269;SDS011;6703;51.994;7.570;2023-02-23T11:28:29;61.03;;;19.05;;
13269;SDS011;6703;51.994;7.570;2023-02-23T11:30:59;65.30;;;19.65;;
13269;SDS011;6703;51.994;7.570;2023-02-23T11:33:29;63.72;;;20.60;;
13269;SDS011;6703;51.994;7.570;2023-02-23T11:36:16;68.13;;;20.65;;
13269;SDS011;6703;51.994;7.570;2023-02-23T11:38:44;64.68;;;18.77;;
13269;SDS011;6703;51.994;7.570;2023-02-23T11:41:17;72.60;;;21.08;;
13269;SDS011;6703;51.994;7.570;2023-02-23T11:43:49;64.07;;;20.30;;
13269;SDS011;6703;51.994;7.570;2023-02-23T11:46:18;64.77;;;20.00;;
13269;SDS011;6703;51.994;7.570;2023-02-23T11:48:49;56.70;;;19.10;;
13269;SDS011;6703;51.994;7.570;2023-02-23T11:51:23;59.42;;;18.92;;
13269;SDS011;6703;51.994;7.570;2023-02-23T11:53:51;54.30;;;18.15;;
13269;SDS011;6703;51.994;7.570;2023-02-23T11:56:20;51.45;;;17.75;;
13269;SDS011;6703;51.994;7.570;2023-02-23T11:58:52;56.20;;;18.70;;
13269;SDS011;6703;51.994;7.570;2023-02-23T12:01:25;48.75;;;17.42;;
13269;SDS011;6703;51.994;7.570;2023-02-23T12:04:02;51.58;;;16.95;;
13269;SDS011;6703;51.994;7.570;2023-02-23T12:06:30;49.83;;;17.13;;
13269;SDS011;6703;51.994;7.570;2023-02-23T12:09:00;49.60;;;17.85;;
13269;SDS011;6703;51.994;7.570;2023-02-23T12:11:35;44.63;;;15.77;;
13269;SDS011;6703;51.994;7.570;2023-02-23T12:14:06;41.00;;;15.45;;
13269;SDS011;6703;51.994;7.570;2023-02-23T12:16:38;41.47;;;14.55;;
13269;SDS011;6703;51.994;7.570;2023-02-23T12:19:12;40.63;;;15.50;;
13269;SDS011;6703;51.994;7.570;2023-02-23T12:21:50;43.28;;;15.43;;
13269;SDS011;6703;51.994;7.570;2023-02-23T12:24:24;45.58;;;16.52;;
13269;SDS011;6703;51.994;7.570;2023-02-23T12:27:08;49.03;;;16.48;;
13269;SDS011;6703;51.994;7.570;2023-02-23T12:29:43;43.03;;;15.40;;
13269;SDS011;6703;51.994;7.570;2023-02-23T12:32:23;37.05;;;14.30;;
13269;SDS011;6703;51.994;7.570;2023-02-23T12:34:53;40.60;;;14.90;;
13269;SDS011;6703;51.994;7.570;2023-02-23T12:37:26;46.42;;;14.82;;
13269;SDS011;6703;51.994;7.570;2023-02-23T12:40:04;40.25;;;14.70;;
13269;SDS011;6703;51.994;7.570;2023-02-23T12:42:40;35.40;;;12.95;;
13269;SDS011;6703;51.994;7.570;2023-02-23T12:45:15;42.87;;;14.23;;
13269;SDS011;6703;51.994;7.570;2023-02-23T12:47:48;40.55;;;14.68;;
13269;SDS011;6703;51.994;7.570;2023-02-23T12:50:22;42.28;;;15.10;;
13269;SDS011;6703;51.994;7.570;2023-02-23T12:52:54;43.43;;;15.47;;
13269;SDS011;6703;51.994;7.570;2023-02-23T12:55:27;49.07;;;16.83;;
13269;SDS011;6703;51.994;7.570;2023-02-23T12:58:05;47.40;;;16.10;;
13269;SDS011;6703;51.994;7.570;2023-02-23T13:00:38;50.75;;;15.75;;
13269;SDS011;6703;51.994;7.570;2023-02-23T13:03:15;41.83;;;14.30;;
13269;SDS011;6703;51.994;7.570;2023-02-23T13:05:50;41.35;;;14.77;;
13269;SDS011;6703;51.994;7.570;2023-02-23T13:08:25;38.03;;;14.47;;
13269;SDS011;6703;51.994;7.570;2023-02-23T13:11:00;40.58;;;15.60;;
13269;SDS011;6703;51.994;7.570;2023-02-23T13:13:33;40.00;;;15.63;;
13269;SDS011;6703;51.994;7.570;2023-02-23T13:16:09;39.87;;;15.23;;
13269;SDS011;6703;51.994;7.570;2023-02-23T13:18:40;45.47;;;15.90;;
13269;SDS011;6703;51.994;7.570;2023-02-23T13:21:14;45.88;;;16.80;;
13269;SDS011;6703;51.994;7.570;2023-02-23T13:23:49;45.05;;;15.80;;
13269;SDS011;6703;51.994;7.570;2023-02-23T13:26:23;44.28;;;15.98;;
13269;SDS011;6703;51.994;7.570;2023-02-23T13:28:55;46.17;;;16.25;;
13269;SDS011;6703;51.994;7.570;2023-02-23T13:31:28;45.38;;;16.25;;
13269;SDS011;6703;51.994;7.570;2023-02-23T13:33:59;46.05;;;16.25;;
13269;SDS011;6703;51.994;7.570;2023-02-23T13:36:28;50.85;;;16.98;;
13269;SDS011;6703;51.994;7.570;2023-02-23T13:39:19;53.22;;;16.98;;
13269;SDS011;6703;51.994;7.570;2023-02-23T13:41:59;55.85;;;18.35;;
13269;SDS011;6703;51.994;7.570;2023-02-23T13:44:36;53.37;;;18.47;;
13269;SDS011;6703;51.994;7.570;2023-02-23T13:47:09;56.00;;;18.43;;
13269;SDS011;6703;51.994;7.570;2023-02-23T13:49:45;60.08;;;18.05;;
13269;SDS011;6703;51.994;7.570;2023-02-23T13:52:19;50.60;;;17.23;;
13269;SDS011;6703;51.994;7.570;2023-02-23T13:54:53;57.40;;;18.48;;
13269;SDS011;6703;51.994;7.570;2023-02-23T13:57:23;56.77;;;18.13;;
13269;SDS011;6703;51.994;7.570;2023-02-23T13:59:53;45.88;;;15.88;;
13269;SDS011;6703;51.994;7.570;2023-02-23T14:02:24;55.13;;;18.33;;
13269;SDS011;6703;51.994;7.570;2023-02-23T14:05:03;50.28;;;15.52;;
13269;SDS011;6703;51.994;7.570;2023-02-23T14:07:37;58.08;;;18.02;;
13269;SDS011;6703;51.994;7.570;2023-02-23T14:10:07;63.92;;;18.80;;
13269;SDS011;6703;51.994;7.570;2023-02-23T14:12:41;68.97;;;19.60;;
13269;SDS011;6703;51.994;7.570;2023-02-23T14:15:40;62.08;;;18.75;;
13269;SDS011;6703;51.994;7.570;2023-02-23T14:21:00;65.78;;;17.73;;
13269;SDS011;6703;51.994;7.570;2023-02-23T14:23:35;66.18;;;18.25;;
13269;SDS011;6703;51.994;7.570;2023-02-23T14:26:10;63.47;;;17.30;;
13269;SDS011;6703;51.994;7.570;2023-02-23T14:28:41;64.57;;;16.95;;
13269;SDS011;6703;51.994;7.570;2023-02-23T14:31:15;60.63;;;16.90;;
13269;SDS011;6703;51.994;7.570;2023-02-23T14:33:50;71.50;;;18.48;;
13269;SDS011;6703;51.994;7.570;2023-02-23T14:36:28;70.40;;;17.50;;
13269;SDS011;6703;51.994;7.570;2023-02-23T14:39:01;84.37;;;18.13;;
13269;SDS011;6703;51.994;7.570;2023-02-23T14:41:33;64.50;;;16.90;;
13269;SDS011;6703;51.994;7.570;2023-02-23T14:44:06;62.95;;;16.63;;
13269;SDS011;6703;51.994;7.570;2023-02-23T14:46:53;54.70;;;16.55;;
13269;SDS011;6703;51.994;7.570;2023-02-23T14:49:26;68.15;;;16.30;;
13269;SDS011;6703;51.994;7.570;2023-02-23T14:51:58;65.78;;;15.85;;
13269;SDS011;6703;51.994;7.570;2023-02-23T14:54:31;67.63;;;16.80;;
13269;SDS011;6703;51.994;7.570;2023-02-23T14:57:01;52.88;;;15.50;;
13269;SDS011;6703;51.994;7.570;2023-02-23T14:59:35;60.53;;;16.20;;
13269;SDS011;6703;51.994;7.570;2023-02-23T15:02:08;63.35;;;15.60;;